sensor_id;sensor_type;location;lat;lon;timestamp;pressure;altitude;pressure_sealevel;temperature;humidity
45789;BME280;31492;54.856;26.318;2023-06-26T01:27:14;1021.7;;;19.4;53.4
45789;BME280;31492;54.856;26.318;2023-06-26T01:31:52;1021.6;;;16.3;59.8
45789;BME280;31492;54.856;26.318;2023-06-26T01:36:52;1021.6;;;16.3;59.8
45789;BME280;31492;54.856;26.318;2023-06-26T01:42:06;1021.6;;;16.3;59.7
45789;BME280;31492;54.856;26.318;2023-06-26T01:47:08;1021.6;;;16.2;59.8
45789;BME280;31492;54.856;26.318;2023-06-26T01:52:07;1021.5;;;16.2;60
45789;BME280;31492;54.856;26.318;2023-06-26T01:57:12;1021.5;;;16.2;60.8
45789;BME280;31492;54.856;26.318;2023-06-26T02:02:08;1021.5;;;16.1;61.4
45789;BME280;31492;54.856;26.318;2023-06-26T02:07:22;1021.5;;;16.1;61.3
45789;BME280;31492;54.856;26.318;2023-06-26T02:12:08;1021.5;;;16.1;61.5
45789;BME280;31492;54.856;26.318;2023-06-26T02:17:30;1021.5;;;16.1;61.4
45789;BME280;31492;54.856;26.318;2023-06-26T02:22:08;1021.5;;;16.1;61.5
45789;BME280;31492;54.856;26.318;2023-06-26T02:27:06;1021.5;;;16.1;61.8
45789;BME280;31492;54.856;26.318;2023-06-26T02:32:16;1021.5;;;16.1;61.8
45789;BME280;31492;54.856;26.318;2023-06-26T02:36:52;1021.5;;;16.1;62
45789;BME280;31492;54.856;26.318;2023-06-26T02:42:22;1021.4;;;16.1;62
45789;BME280;31492;54.856;26.318;2023-06-26T02:47:22;1021.4;;;16.1;61.5
45789;BME280;31492;54.856;26.318;2023-06-26T02:52:08;1021.4;;;16.1;61.2
45789;BME280;31492;54.856;26.318;2023-06-26T02:57:06;1021.3;;;16.1;61
45789;BME280;31492;54.856;26.318;2023-06-26T03:01:52;1021.3;;;16.1;61
45789;BME280;31492;54.856;26.318;2023-06-26T03:06:58;1021.3;;;16.1;61.1
45789;BME280;31492;54.856;26.318;2023-06-26T03:12:12;1021.3;;;16.1;61
45789;BME280;31492;54.856;26.318;2023-06-26T03:16:52;1021.3;;;16;61.3
45789;BME280;31492;54.856;26.318;2023-06-26T03:22:40;1021.3;;;16;61.5
45789;BME280;31492;54.856;26.318;2023-06-26T03:26:52;1021.3;;;16.1;61.9
45789;BME280;31492;54.856;26.318;2023-06-26T03:32:14;1021.3;;;16.1;61.9
45789;BME280;31492;54.856;26.318;2023-06-26T03:37:12;1021.3;;;16.1;62.1
45789;BME280;31492;54.856;26.318;2023-06-26T03:42:18;1021.3;;;16.1;62.5
45789;BME280;31492;54.856;26.318;2023-06-26T03:46:52;1021.2;;;16.2;62.4
45789;BME280;31492;54.856;26.318;2023-06-26T03:52:14;1021.2;;;16.3;62.8
45789;BME280;31492;54.856;26.318;2023-06-26T03:57:08;1021.2;;;16.4;62.8
45789;BME280;31492;54.856;26.318;2023-06-26T04:02:06;1021.2;;;16.4;62.9
45789;BME280;31492;54.856;26.318;2023-06-26T04:06:52;1021.2;;;16.5;63.2
45789;BME280;31492;54.856;26.318;2023-06-26T04:11:58;1021.1;;;16.6;63.5
45789;BME280;31492;54.856;26.318;2023-06-26T04:17:20;1021.1;;;16.7;63.4
45789;BME280;31492;54.856;26.318;2023-06-26T04:22:38;1021;;;16.8;63.4
45789;BME280;31492;54.856;26.318;2023-06-26T04:27:08;1021;;;16.9;63.5
45789;BME280;31492;54.856;26.318;2023-06-26T04:32:06;1021.1;;;17;63.6
45789;BME280;31492;54.856;26.318;2023-06-26T04:36:52;1021.1;;;17.1;63.4
45789;BME280;31492;54.856;26.318;2023-06-26T04:41:52;1021;;;17.3;63.5
45789;BME280;31492;54.856;26.318;2023-06-26T04:47:12;1021;;;17.3;63.6
45789;BME280;31492;54.856;26.318;2023-06-26T04:51:52;1021;;;17.5;63.5
45789;BME280;31492;54.856;26.318;2023-06-26T04:56:52;1021;;;17.6;62.7
45789;BME280;31492;54.856;26.318;2023-06-26T05:01:52;1020.9;;;17.8;62.3
45789;BME280;31492;54.856;26.318;2023-06-26T05:07:06;1020.9;;;18;62.1
45789;BME280;31492;54.856;26.318;2023-06-26T05:11:52;1020.8;;;18.1;62
45789;BME280;31492;54.856;26.318;2023-06-26T05:16:58;1020.8;;;18.4;61.5
45789;BME280;31492;54.856;26.318;2023-06-26T05:22:20;1020.8;;;18.6;61.3
45789;BME280;31492;54.856;26.318;2023-06-26T05:27:12;1020.8;;;18.7;60.6
45789;BME280;31492;54.856;26.318;2023-06-26T05:31:52;1020.7;;;18.8;60.7
45789;BME280;31492;54.856;26.318;2023-06-26T05:37:08;1020.7;;;18.9;60.2
45789;BME280;31492;54.856;26.318;2023-06-26T05:42:06;1020.6;;;19.1;59.5
45789;BME280;31492;54.856;26.318;2023-06-26T05:46:52;1020.6;;;19.3;59
45789;BME280;31492;54.856;26.318;2023-06-26T05:51:52;1020.6;;;19.5;58.5
45789;BME280;31492;54.856;26.318;2023-06-26T05:56:52;1020.5;;;19.7;57.5
45789;BME280;31492;54.856;26.318;2023-06-26T06:02:11;1020.5;;;19.8;57.2
45789;BME280;31492;54.856;26.318;2023-06-26T06:06:52;1020.5;;;20;56.5
45789;BME280;31492;54.856;26.318;2023-06-26T06:12:07;1020.5;;;20.3;56.1
45789;BME280;31492;54.856;26.318;2023-06-26T06:16:52;1020.4;;;20.6;55.4
45789;BME280;31492;54.856;26.318;2023-06-26T06:22:10;1020.4;;;21;54.6
45789;BME280;31492;54.856;26.318;2023-06-26T06:26:58;1020.4;;;21.3;54.1
45789;BME280;31492;54.856;26.318;2023-06-26T06:31:52;1020.4;;;21.6;53.3
45789;BME280;31492;54.856;26.318;2023-06-26T06:37:08;1020.3;;;22;52.4
45789;BME280;31492;54.856;26.318;2023-06-26T06:42:08;1020.4;;;22.3;51.7
45789;BME280;31492;54.856;26.318;2023-06-26T06:47:34;1020.3;;;22.5;51.4
45789;BME280;31492;54.856;26.318;2023-06-26T06:52:06;1020.3;;;22.7;50.4
45789;BME280;31492;54.856;26.318;2023-06-26T06:57:10;1020.4;;;23;49.9
45789;BME280;31492;54.856;26.318;2023-06-26T07:02:05;1020.3;;;23.4;48.9
45789;BME280;31492;54.856;26.318;2023-06-26T07:07:20;1020.3;;;24;48.3
45789;BME280;31492;54.856;26.318;2023-06-26T07:12:20;1020.3;;;24.8;46.2
45789;BME280;31492;54.856;26.318;2023-06-26T07:17:14;1020.2;;;25.5;44.7
45789;BME280;31492;54.856;26.318;2023-06-26T07:22:06;1020.2;;;26.3;43.8
45789;BME280;31492;54.856;26.318;2023-06-26T07:27:14;1020.2;;;27.1;42.3
45789;BME280;31492;54.856;26.318;2023-06-26T07:32:04;1020.1;;;27.8;41.3
45789;BME280;31492;54.856;26.318;2023-06-26T07:36:52;1020.1;;;28.3;39.9
45789;BME280;31492;54.856;26.318;2023-06-26T07:42:36;1020;;;28.5;38.6
45789;BME280;31492;54.856;26.318;2023-06-26T07:47:08;1020;;;28.3;39.2
45789;BME280;31492;54.856;26.318;2023-06-26T07:52:18;1020;;;27.7;39.7
45789;BME280;31492;54.856;26.318;2023-06-26T07:57:06;1020.1;;;27.1;39.6
45789;BME280;31492;54.856;26.318;2023-06-26T08:01:53;1020;;;26.9;39.9
45789;BME280;31492;54.856;26.318;2023-06-26T08:07:05;1019.9;;;27.6;38.7
45789;BME280;31492;54.856;26.318;2023-06-26T08:12:05;1019.9;;;28.5;37.7
45789;BME280;31492;54.856;26.318;2023-06-26T08:16:52;1019.9;;;28.4;36.8
45789;BME280;31492;54.856;26.318;2023-06-26T08:22:23;1019.8;;;28;36.1
45789;BME280;31492;54.856;26.318;2023-06-26T08:27:04;1019.8;;;27.8;36.8
45789;BME280;31492;54.856;26.318;2023-06-26T08:32:12;1019.8;;;27.4;36.4
45789;BME280;31492;54.856;26.318;2023-06-26T11:42:08;1019.8;;;27.4;36.4
45789;BME280;31492;54.856;26.318;2023-06-26T11:46:53;1019.3;;;30.3;34.3
45789;BME280;31492;54.856;26.318;2023-06-26T11:51:58;1019.3;;;30.7;33.2
45789;BME280;31492;54.856;26.318;2023-06-26T11:57:12;1019.3;;;30.9;32
45789;BME280;31492;54.856;26.318;2023-06-26T12:02:05;1019.3;;;30.6;31.5
45789;BME280;31492;54.856;26.318;2023-06-26T12:06:53;1019.3;;;30.3;32
45789;BME280;31492;54.856;26.318;2023-06-26T12:12:29;1019.4;;;30.4;32.6
45789;BME280;31492;54.856;26.318;2023-06-26T12:17:08;1019.3;;;30.2;32.5
45789;BME280;31492;54.856;26.318;2023-06-26T12:22:13;1019.3;;;30.1;32.7
45789;BME280;31492;54.856;26.318;2023-06-26T12:27:13;1019.2;;;30.2;32.6
45789;BME280;31492;54.856;26.318;2023-06-26T12:31:59;1019.2;;;30.8;32
45789;BME280;31492;54.856;26.318;2023-06-26T12:37:05;1019.1;;;31.3;31.1
45789;BME280;31492;54.856;26.318;2023-06-26T12:42:09;1019;;;31.7;29.7
45789;BME280;31492;54.856;26.318;2023-06-26T12:47:23;1018.9;;;31.6;29.4
45789;BME280;31492;54.856;26.318;2023-06-26T12:52:21;1018.8;;;31.6;29
45789;BME280;31492;54.856;26.318;2023-06-26T12:56:53;1018.8;;;31.5;28.7
45789;BME280;31492;54.856;26.318;2023-06-26T13:01:53;1018.8;;;31.6;28.9
45789;BME280;31492;54.856;26.318;2023-06-26T13:07:07;1018.7;;;31.7;28.3
45789;BME280;31492;54.856;26.318;2023-06-26T13:11:53;1018.6;;;31.4;28.4
45789;BME280;31492;54.856;26.318;2023-06-26T13:17:10;1018.6;;;31.2;28
45789;BME280;31492;54.856;26.318;2023-06-26T13:22:07;1018.5;;;30.9;28.9
45789;BME280;31492;54.856;26.318;2023-06-26T13:27:23;1018.4;;;30.8;28.3
45789;BME280;31492;54.856;26.318;2023-06-26T13:32:29;1018.4;;;30.8;28.3
45789;BME280;31492;54.856;26.318;2023-06-26T13:36:53;1018.4;;;30.7;27.8
45789;BME280;31492;54.856;26.318;2023-06-26T13:42:39;1018.3;;;30.6;28.1
45789;BME280;31492;54.856;26.318;2023-06-26T13:47:07;1018.2;;;30.6;27.8
45789;BME280;31492;54.856;26.318;2023-06-26T13:52:09;1018.1;;;30.5;28.2
45789;BME280;31492;54.856;26.318;2023-06-26T13:56:59;1018.1;;;30.4;28.4
45789;BME280;31492;54.856;26.318;2023-06-26T14:02:23;1018.1;;;30.3;28.3
45789;BME280;31492;54.856;26.318;2023-06-26T14:07:09;1018.1;;;29.9;28.5
45789;BME280;31492;54.856;26.318;2023-06-26T14:11:53;1018.1;;;29.7;28.7
45789;BME280;31492;54.856;26.318;2023-06-26T14:16:53;1018.1;;;29.5;28.9
45789;BME280;31492;54.856;26.318;2023-06-26T14:21:53;1018.1;;;29.2;29.1
45789;BME280;31492;54.856;26.318;2023-06-26T14:27:09;1018.1;;;28.7;30.7
45789;BME280;31492;54.856;26.318;2023-06-26T14:31:59;1018.1;;;28.4;30.9
45789;BME280;31492;54.856;26.318;2023-06-26T14:36:53;1018.1;;;28;31.2
45789;BME280;31492;54.856;26.318;2023-06-26T14:41:53;1018.1;;;27.7;32.1
45789;BME280;31492;54.856;26.318;2023-06-26T14:47:07;1018.1;;;27.4;32.4
45789;BME280;31492;54.856;26.318;2023-06-26T14:52:29;1018.1;;;27.1;31.9
45789;BME280;31492;54.856;26.318;2023-06-26T14:56:53;1018;;;26.8;32.4
45789;BME280;31492;54.856;26.318;2023-06-26T15:02:17;1018;;;26.4;33.6
45789;BME280;31492;54.856;26.318;2023-06-26T15:06:53;1018;;;26.1;34.6
45789;BME280;31492;54.856;26.318;2023-06-26T15:12:13;1018.1;;;25.8;36
45789;BME280;31492;54.856;26.318;2023-06-26T15:16:53;1018.1;;;25.5;37
45789;BME280;31492;54.856;26.318;2023-06-26T15:22:05;1018.2;;;25.3;37.6
45789;BME280;31492;54.856;26.318;2023-06-26T15:26:53;1018.2;;;25.2;38.3
45789;BME280;31492;54.856;26.318;2023-06-26T15:31:53;1018.2;;;25.1;38.3
45789;BME280;31492;54.856;26.318;2023-06-26T15:37:07;1018.2;;;25;39
45789;BME280;31492;54.856;26.318;2023-06-26T15:41:53;1018.2;;;25;39.1
45789;BME280;31492;54.856;26.318;2023-06-26T15:47:13;1018.2;;;25;39.5
45789;BME280;31492;54.856;26.318;2023-06-26T15:51:59;1018.2;;;25.1;39.4
45789;BME280;31492;54.856;26.318;2023-06-26T15:56:53;1018.2;;;25.1;39.6
45789;BME280;31492;54.856;26.318;2023-06-26T16:01:53;1018.2;;;25.2;38.8
45789;BME280;31492;54.856;26.318;2023-06-26T16:06:53;1018.1;;;25.2;38.4
45789;BME280;31492;54.856;26.318;2023-06-26T16:12:07;1018;;;25.2;38.2
45789;BME280;31492;54.856;26.318;2023-06-26T16:17:09;1018;;;25.2;39.2
45789;BME280;31492;54.856;26.318;2023-06-26T16:21:59;1018;;;25.1;39.4
45789;BME280;31492;54.856;26.318;2023-06-26T16:26:53;1017.9;;;25.1;40.1
45789;BME280;31492;54.856;26.318;2023-06-26T16:32:07;1017.9;;;25.1;40.8
45789;BME280;31492;54.856;26.318;2023-06-26T16:36:53;1017.9;;;25.1;41
45789;BME280;31492;54.856;26.318;2023-06-26T16:42:07;1017.8;;;25;41.1
45789;BME280;31492;54.856;26.318;2023-06-26T16:46:55;1017.8;;;24.9;41.2
45789;BME280;31492;54.856;26.318;2023-06-26T16:51:53;1017.7;;;24.7;40.7
45789;BME280;31492;54.856;26.318;2023-06-26T16:57:07;1017.7;;;24.6;40.7
45789;BME280;31492;54.856;26.318;2023-06-26T17:02:07;1017.6;;;24.3;41.3
45789;BME280;31492;54.856;26.318;2023-06-26T17:07:09;1017.7;;;24.1;42.2
45789;BME280;31492;54.856;26.318;2023-06-26T17:11:53;1017.7;;;23.9;42.2
45789;BME280;31492;54.856;26.318;2023-06-26T17:16:53;1017.7;;;23.8;42.3
45789;BME280;31492;54.856;26.318;2023-06-26T17:22:05;1017.7;;;23.6;42.9
45789;BME280;31492;54.856;26.318;2023-06-26T17:27:07;1017.7;;;23.5;43.2
45789;BME280;31492;54.856;26.318;2023-06-26T17:31:53;1017.8;;;23.4;43.9
45789;BME280;31492;54.856;26.318;2023-06-26T17:37:07;1017.8;;;23.2;44.4
45789;BME280;31492;54.856;26.318;2023-06-26T17:41:59;1017.7;;;23.1;44.6
45789;BME280;31492;54.856;26.318;2023-06-26T17:47:23;1017.8;;;23;45.1
45789;BME280;31492;54.856;26.318;2023-06-26T17:52:07;1017.7;;;22.9;45.6
45789;BME280;31492;54.856;26.318;2023-06-26T17:56:53;1017.7;;;22.7;46.4
45789;BME280;31492;54.856;26.318;2023-06-26T18:01:59;1017.7;;;22.5;46.7
45789;BME280;31492;54.856;26.318;2023-06-26T18:07:05;1017.8;;;22.4;46.8
45789;BME280;31492;54.856;26.318;2023-06-26T18:11:53;1017.9;;;22.3;47
45789;BME280;31492;54.856;26.318;2023-06-26T18:17:09;1017.9;;;22.2;47.5
45789;BME280;31492;54.856;26.318;2023-06-26T18:22:15;1018;;;22.1;48
45789;BME280;31492;54.856;26.318;2023-06-26T18:27:23;1018;;;22;48.1
45789;BME280;31492;54.856;26.318;2023-06-26T18:32:09;1018;;;21.8;48.6
45789;BME280;31492;54.856;26.318;2023-06-26T18:37:15;1018.1;;;21.6;49.1
45789;BME280;31492;54.856;26.318;2023-06-26T18:42:31;1018.1;;;21.4;49.4
45789;BME280;31492;54.856;26.318;2023-06-26T18:47:21;1018.2;;;21.3;49.5
45789;BME280;31492;54.856;26.318;2023-06-26T18:52:07;1018.2;;;21.2;49.6
45789;BME280;31492;54.856;26.318;2023-06-26T18:57:07;1018.2;;;21;50
45789;BME280;31492;54.856;26.318;2023-06-26T19:02:05;1018.2;;;20.9;50.2
45789;BME280;31492;54.856;26.318;2023-06-26T19:06:59;1018.2;;;20.8;50.8
45789;BME280;31492;54.856;26.318;2023-06-26T19:12:23;1018.1;;;20.5;51.5
45789;BME280;31492;54.856;26.318;2023-06-26T19:17:07;1018.1;;;20.2;51.8
45789;BME280;31492;54.856;26.318;2023-06-26T19:22:09;1018.2;;;20.1;52
45789;BME280;31492;54.856;26.318;2023-06-26T19:27:31;1018.2;;;20;52.2
45789;BME280;31492;54.856;26.318;2023-06-26T19:32:07;1018.1;;;19.9;52.4
45789;BME280;31492;54.856;26.318;2023-06-26T19:37:11;1018.1;;;19.9;52.4
45789;BME280;31492;54.856;26.318;2023-06-26T19:41:59;1018;;;19.8;52.6
45789;BME280;31492;54.856;26.318;2023-06-26T19:47:23;1018;;;19.7;53
45789;BME280;31492;54.856;26.318;2023-06-26T19:52:07;1018;;;19.6;52.9
45789;BME280;31492;54.856;26.318;2023-06-26T19:56:53;1018;;;19.5;53.4
45789;BME280;31492;54.856;26.318;2023-06-26T20:01:53;1018;;;19.3;53.8
45789;BME280;31492;54.856;26.318;2023-06-26T20:06:53;1018.1;;;19.1;54.2
45789;BME280;31492;54.856;26.318;2023-06-26T20:11:53;1018;;;19;54.6
45789;BME280;31492;54.856;26.318;2023-06-26T20:17:07;1018.1;;;18.9;54.7
45789;BME280;31492;54.856;26.318;2023-06-26T20:22:07;1018.1;;;18.9;54.7
45789;BME280;31492;54.856;26.318;2023-06-26T20:27:09;1018.1;;;18.9;54.6
45789;BME280;31492;54.856;26.318;2023-06-26T20:32:09;1018.1;;;18.8;55
45789;BME280;31492;54.856;26.318;2023-06-26T20:37:05;1018.2;;;18.7;55.3
45789;BME280;31492;54.856;26.318;2023-06-26T20:41:53;1018.2;;;18.6;55.4
45789;BME280;31492;54.856;26.318;2023-06-26T20:46:53;1018.2;;;18.6;55.5
45789;BME280;31492;54.856;26.318;2023-06-26T20:52:16;1018.2;;;18.5;55.7
45789;BME280;31492;54.856;26.318;2023-06-26T20:57:05;1018.2;;;18.4;56
45789;BME280;31492;54.856;26.318;2023-06-26T21:01:53;1018.1;;;18.2;56.3
45789;BME280;31492;54.856;26.318;2023-06-26T21:06:53;1018;;;18.2;56.5
45789;BME280;31492;54.856;26.318;2023-06-26T21:12:05;1018;;;18.1;56.8
45789;BME280;31492;54.856;26.318;2023-06-26T21:17:13;1018;;;18;57
45789;BME280;31492;54.856;26.318;2023-06-26T21:21:53;1018;;;18;57.2
45789;BME280;31492;54.856;26.318;2023-06-26T21:27:29;1018;;;17.9;57.5
45789;BME280;31492;54.856;26.318;2023-06-26T21:32:17;1018;;;17.9;57.4
45789;BME280;31492;54.856;26.318;2023-06-26T21:37:31;1018;;;17.8;57.7
45789;BME280;31492;54.856;26.318;2023-06-26T21:42:19;1018;;;17.6;58.1
45789;BME280;31492;54.856;26.318;2023-06-26T21:47:05;1018;;;17.5;58.2
45789;BME280;31492;54.856;26.318;2023-06-26T21:51:59;1018;;;17.4;58.4
45789;BME280;31492;54.856;26.318;2023-06-26T21:57:07;1017.9;;;17.4;58.4
45789;BME280;31492;54.856;26.318;2023-06-26T22:02:31;1018;;;17.3;58.5
45789;BME280;31492;54.856;26.318;2023-06-26T22:07:09;1017.9;;;17.3;58.6
45789;BME280;31492;54.856;26.318;2023-06-26T22:11:53;1017.9;;;17.3;58.7
45789;BME280;31492;54.856;26.318;2023-06-26T22:17:34;1018;;;17.1;58.9
45789;BME280;31492;54.856;26.318;2023-06-26T22:21:53;1017.9;;;17;59.5
45789;BME280;31492;54.856;26.318;2023-06-26T22:26:53;1017.9;;;16.7;60.1
45789;BME280;31492;54.856;26.318;2023-06-26T22:32:07;1017.8;;;16.7;59.9
45789;BME280;31492;54.856;26.318;2023-06-26T22:37:23;1017.8;;;16.6;60.2
45789;BME280;31492;54.856;26.318;2023-06-26T22:41:53;1017.8;;;16.5;60
45789;BME280;31492;54.856;26.318;2023-06-26T22:46:53;1017.8;;;16.5;60
45789;BME280;31492;54.856;26.318;2023-06-26T22:52:07;1017.8;;;16.5;60.1
45789;BME280;31492;54.856;26.318;2023-06-26T22:56:53;1017.8;;;16.3;60.5
45789;BME280;31492;54.856;26.318;2023-06-26T23:01:53;1017.7;;;16.3;60.5
45789;BME280;31492;54.856;26.318;2023-06-26T23:07:07;1017.6;;;16.3;60.7
45789;BME280;31492;54.856;26.318;2023-06-26T23:12:09;1017.5;;;16.2;60.5
45789;BME280;31492;54.856;26.318;2023-06-26T23:16:54;1017.5;;;16.2;60.7
45789;BME280;31492;54.856;26.318;2023-06-26T23:22:07;1017.6;;;16.2;60.9
45789;BME280;31492;54.856;26.318;2023-06-26T23:26:53;1017.6;;;16.1;61.3
45789;BME280;31492;54.856;26.318;2023-06-26T23:31:59;1017.5;;;15.8;62
45789;BME280;31492;54.856;26.318;2023-06-26T23:37:23;1017.5;;;15.9;61.9
45789;BME280;31492;54.856;26.318;2023-06-26T23:41:53;1017.5;;;15.9;61.7
45789;BME280;31492;54.856;26.318;2023-06-26T23:46:53;1017.5;;;15.9;61.6
45789;BME280;31492;54.856;26.318;2023-06-26T23:52:33;1017.5;;;15.9;61.7
45789;BME280;31492;54.856;26.318;2023-06-26T23:56:53;1017.5;;;15.9;61.6
